createdAt,value
2022-12-04T00:04:52.101Z,87.60
2022-12-04T00:09:52.075Z,88.12
2022-12-04T00:15:23.793Z,88.96
2022-12-04T00:19:53.224Z,88.43
2022-12-04T00:24:51.602Z,88.75
2022-12-04T00:29:51.764Z,88.02
2022-12-04T00:34:51.628Z,88.33
2022-12-04T00:39:51.564Z,88.02
2022-12-04T00:44:54.478Z,88.54
2022-12-04T00:49:51.794Z,89.62
2022-12-04T00:54:51.333Z,89.66
2022-12-04T00:59:51.139Z,89.41
2022-12-04T01:04:51.169Z,89.00
2022-12-04T01:09:51.000Z,89.20
2022-12-04T01:14:51.133Z,88.68
2022-12-04T01:19:50.873Z,88.29
2022-12-04T01:24:50.918Z,87.46
2022-12-04T01:29:50.751Z,88.19
2022-12-04T01:34:50.925Z,87.40
2022-12-04T01:39:50.652Z,89.00
2022-12-04T01:44:53.648Z,89.02
2022-12-04T01:49:50.643Z,90.45
2022-12-04T01:54:50.592Z,88.75
2022-12-04T01:59:50.385Z,89.41
2022-12-04T02:04:50.369Z,88.96
2022-12-04T02:09:50.328Z,88.75
2022-12-04T02:14:50.243Z,88.68
2022-12-04T02:19:50.252Z,89.17
2022-12-04T02:24:50.548Z,88.96
2022-12-04T02:29:50.067Z,88.85
2022-12-04T02:34:50.018Z,88.43
2022-12-04T02:39:49.874Z,87.88
2022-12-04T02:45:00.767Z,87.48
2022-12-04T02:49:49.787Z,88.75
2022-12-04T02:54:49.778Z,87.32
2022-12-04T02:59:49.614Z,88.29
2022-12-04T03:04:49.736Z,88.09
2022-12-04T03:09:49.504Z,87.88
2022-12-04T03:14:49.553Z,88.29
2022-12-04T03:19:49.388Z,87.42
2022-12-04T03:24:49.348Z,88.29
2022-12-04T03:29:49.352Z,87.63
2022-12-04T03:34:49.496Z,87.98
2022-12-04T03:39:49.267Z,88.33
2022-12-04T03:44:52.263Z,88.25
2022-12-04T03:49:49.048Z,88.85
2022-12-04T03:54:49.269Z,87.63
2022-12-04T03:59:55.264Z,86.76
2022-12-04T04:04:49.964Z,87.66
2022-12-04T04:09:49.032Z,87.42
2022-12-04T04:14:48.832Z,87.17
2022-12-04T04:19:48.819Z,86.90
2022-12-04T04:24:48.688Z,88.29
2022-12-04T04:29:52.471Z,88.56
2022-12-04T04:34:48.592Z,87.32
2022-12-04T04:39:48.552Z,87.84
2022-12-04T04:44:51.697Z,86.86
2022-12-04T04:49:48.327Z,88.85
2022-12-04T04:54:48.318Z,88.19
2022-12-04T04:59:48.173Z,88.60
2022-12-04T05:04:48.163Z,89.64
2022-12-04T05:09:47.973Z,88.56
2022-12-04T05:14:48.002Z,87.46
2022-12-04T05:19:47.982Z,87.66
2022-12-04T05:24:47.937Z,88.09
2022-12-04T05:29:47.733Z,86.86
2022-12-04T05:34:47.858Z,87.84
2022-12-04T05:39:47.602Z,87.98
2022-12-04T05:44:50.650Z,87.73
2022-12-04T05:49:47.699Z,89.12
2022-12-04T05:54:47.588Z,88.29
2022-12-04T05:59:47.542Z,87.48
2022-12-04T06:04:47.289Z,87.11
2022-12-04T06:09:47.339Z,86.90
2022-12-04T06:14:47.260Z,87.42
2022-12-04T06:19:47.238Z,86.80
2022-12-04T06:24:47.098Z,86.41
2022-12-04T06:29:47.099Z,86.44
2022-12-04T06:34:46.938Z,86.34
2022-12-04T06:39:46.904Z,86.55
2022-12-04T06:44:49.792Z,86.03
2022-12-04T06:49:46.833Z,87.98
2022-12-04T06:54:46.747Z,87.63
2022-12-04T06:59:46.557Z,86.76
2022-12-04T07:04:46.646Z,86.90
2022-12-04T07:09:46.489Z,86.24
2022-12-04T07:14:46.492Z,85.93
2022-12-04T07:19:46.432Z,85.74
2022-12-04T07:24:46.358Z,86.55
2022-12-04T07:29:46.225Z,87.11
2022-12-04T07:34:46.485Z,86.44
2022-12-04T07:39:46.203Z,86.76
2022-12-04T07:44:49.042Z,87.07
2022-12-04T07:49:46.292Z,88.29
2022-12-04T07:54:46.062Z,87.73
2022-12-04T07:59:45.867Z,87.07
2022-12-04T08:04:45.934Z,86.41
2022-12-04T08:11:08.073Z,86.13
2022-12-04T08:16:07.923Z,86.86
2022-12-04T08:21:07.883Z,85.99
2022-12-04T08:26:07.715Z,86.19
2022-12-04T08:31:08.216Z,86.44
2022-12-04T08:36:08.384Z,87.03
2022-12-04T08:41:20.196Z,86.57
2022-12-04T08:47:25.217Z,85.02
2022-12-04T08:52:24.923Z,86.30
2022-12-04T08:57:25.013Z,87.03
2022-12-04T09:02:33.078Z,85.33
2022-12-04T09:07:24.780Z,86.41
2022-12-04T09:12:25.254Z,87.38
2022-12-04T09:17:24.635Z,86.72
2022-12-04T09:22:24.680Z,87.24
2022-12-04T09:27:24.522Z,86.82
2022-12-04T09:32:24.450Z,86.93
2022-12-04T09:37:27.448Z,86.19
2022-12-04T09:42:24.299Z,88.00
2022-12-04T09:47:24.295Z,85.85
2022-12-04T09:52:24.163Z,86.30
2022-12-04T09:57:24.171Z,85.43
2022-12-04T10:02:24.236Z,85.02
2022-12-04T10:07:23.994Z,84.42
2022-12-04T10:12:24.118Z,85.26
2022-12-04T10:17:27.835Z,85.74
2022-12-04T10:22:25.305Z,86.76
2022-12-04T10:27:23.695Z,87.59
2022-12-04T10:32:24.978Z,87.34
2022-12-04T10:37:26.843Z,86.86
2022-12-04T10:42:23.498Z,87.45
2022-12-04T10:47:23.567Z,86.41
2022-12-04T10:52:23.723Z,85.95
2022-12-04T10:57:23.353Z,86.96
2022-12-04T11:02:23.316Z,86.16
2022-12-04T11:07:23.277Z,86.72
2022-12-04T11:12:23.351Z,86.99
2022-12-04T11:17:23.214Z,86.26
2022-12-04T11:22:23.065Z,85.85
2022-12-04T11:27:23.177Z,85.39
2022-12-04T11:32:23.221Z,85.19
2022-12-04T11:37:25.853Z,85.39
2022-12-04T11:42:22.941Z,85.43
2022-12-04T11:47:22.809Z,85.39
2022-12-04T11:52:22.672Z,85.57
2022-12-04T11:57:22.735Z,85.99
2022-12-04T12:02:22.680Z,87.07
2022-12-04T12:07:22.663Z,87.69
2022-12-04T12:12:22.387Z,87.69
2022-12-04T12:17:22.318Z,87.03
2022-12-04T12:22:22.202Z,86.86
2022-12-04T12:27:22.433Z,88.00
2022-12-04T12:32:22.376Z,87.34
2022-12-04T12:37:25.379Z,87.27
2022-12-04T12:42:29.995Z,88.31
2022-12-04T12:47:21.860Z,86.88
2022-12-04T12:52:22.137Z,86.88
2022-12-04T12:57:21.779Z,86.93
2022-12-04T13:02:21.810Z,86.47
2022-12-04T13:07:21.672Z,86.57
2022-12-04T13:12:21.575Z,86.19
2022-12-04T13:17:21.675Z,87.69
2022-12-04T13:22:21.441Z,88.10
2022-12-04T13:27:21.405Z,87.19
2022-12-04T13:32:25.617Z,86.02
2022-12-04T13:37:25.405Z,86.02
2022-12-04T13:42:21.332Z,87.69
2022-12-04T13:47:21.122Z,87.19
2022-12-04T13:52:21.040Z,87.34
2022-12-04T13:57:21.203Z,87.73
2022-12-04T14:02:21.301Z,87.45
2022-12-04T14:07:21.254Z,86.82
2022-12-04T14:12:20.945Z,86.72
2022-12-04T14:17:20.896Z,87.55
2022-12-04T14:22:20.820Z,86.12
2022-12-04T14:27:20.957Z,86.30
2022-12-04T14:32:20.709Z,86.86
2022-12-04T14:37:23.875Z,87.48
2022-12-04T14:42:20.448Z,89.43
2022-12-04T14:47:20.467Z,88.52
2022-12-04T14:52:38.878Z,88.21
2022-12-04T14:57:20.322Z,88.84
2022-12-04T15:02:20.375Z,87.51
2022-12-04T15:07:20.340Z,87.65
2022-12-04T15:12:20.201Z,88.21
2022-12-04T15:17:20.140Z,88.46
2022-12-04T15:22:20.066Z,88.73
2022-12-04T21:34:16.868Z,84.65
